Du har inga inställningar för hoppväder.nu

Hoppväder.nu

Senast uppdaterat 10:13

UTC-tid

2019-04-23 kl. 08:13


Sol och måne

Solen går upp 5:13 och går ner 21:31 (beräknade cirkatider)
Nästa fullmåne blir om 25 dagar (2019-05-18)

METAR

ESOW (Västerås)
(23 minuter sedan)
ESOW 230750Z AUTO 16005KT 120V190 9999 NCD 13/05 Q1027=



ESSA (Arlanda)
(23 minuter sedan)
ESSA 230750Z 20008KT CAVOK 15/04 Q1027 NOSIG=



ESKN (Skavsta)
(23 minuter sedan)
ESKN 230750Z 15007KT CAVOK 13/06 Q1027=



ESOE (Örebro)
(23 minuter sedan)
ESOE 230750Z 07003KT 030V110 CAVOK 14/06 Q1026=



ESSD (Borlänge)
(23 minuter sedan)
ESSD 230750Z 15005KT 130V200 CAVOK 14/05 Q1025=



TAF

ESOW (Västerås)
ESOW



ESSA (Arlanda)
(163 minuter sedan)
ESSA 230530Z 2306/2406 18006KT CAVOK=



ESKN (Skavsta)
(163 minuter sedan)
ESKN 230530Z 2306/2406 12004KT CAVOK=



ESOE (Örebro)
(163 minuter sedan)
ESOE 230530Z 2306/2315 04003KT CAVOK BECMG 2308/2310 16010KT=



ESSD (Borlänge)
(163 minuter sedan)
ESSD 230530Z 2306/2315 18007KT CAVOK=





Kodnycklar till TAF och METAR






LHP

(Västerås är område G2b i Södra delen)

ÖVERSIKT FÖR OMRÅDE B UTFÄRDAD 230715
GÄLLANDE DEN 23 APRIL 2019 MELLAN 08 OCH 16 UTC


Väderöversikt

Ett högtryck täcker Sverige

Sikt under 5 kilometer eller molnbas under 1000 fot
Väntas inte förekomma under perioden.

Måttlig eller svår isbildning
Väntas inte förekomma under perioden

Måttlig eller svår turbulens
10-16UTC: Område Södra delen



PROGNOS FÖR OMRÅDE B DEN SÖDRA DELEN UTFÄRDAD 230715
GÄLLANDE DEN 23 APRIL 2019 MELLAN 08 OCH 16 UTC

Måttlig eller svår turbulens
08-10UTC: Område G1c,G3d: Väntas inte förekomma under perioden

08-16UTC: Område G1a,G1b,G2b,G2a,G2c,G3a,G3c,G3b: Väntas inte förekomma under perioden

10-16UTC: Område G1c,G3d: måttlig turbulens SFC - 3000ft.


Måttlig eller svår isbildning
08-16UTC: I hela området: Väntas inte förekomma under perioden

Sikt/Väder/Moln
08-16UTC: I hela området: Sikt >8km. Molnbas >2000ft.

Molnöversida
08-16UTC: I hela området: Ingen prognos

CB/TCU Moln
08-16UTC: I hela området: Väntas inte förekomma under perioden

Nollgradersisoterm
08-16UTC: Noll grader FL050 - FL090.

Vind vid marken
08-10UTC: Område G1b: SO-S/3-10 knop, byar upp till 20 knop.
Område G2a: SO-S/2-6 knop, byar upp till 14 knop.
Område G3a: SO-S/2-9 knop, byar upp till 19 knop.
Område G3b: SO/1-8 knop, byar upp till 21 knop.
Område G2c: S/4-7 knop, byar upp till 15 knop.
Område G1a: S/3-10 knop, byar upp till 15 knop.
Område G3d: SO/3-14 knop, byar upp till 26 knop.
Område G1c: SO/4-12 knop, byar upp till 20 knop.
Område G3c: SO/0-13 knop, byar upp till 24 knop.
Område G2b: S/0-8 knop, byar upp till 14 knop.

10-12UTC: Område G3a: SO-S/5-15 knop, byar upp till 28 knop.
Område G1a: S/2-12 knop, byar upp till 19 knop.
Område G1b: SO-S/3-15 knop, byar upp till 30 knop.
Område G3d: SO/8-16 knop, byar upp till 30 knop.
Område G1c: SO/6-13 knop, byar upp till 28 knop.
Område G2c: S/5-11 knop, byar upp till 22 knop.
Område G3c: SO-S/8-15 knop, byar upp till 29 knop.
Område G2b: SO-S/1-12 knop, byar upp till 21 knop.
Område G2a: SO-S/3-13 knop, byar upp till 23 knop.
Område G3b: SO-S/7-16 knop, byar upp till 29 knop.

12-14UTC: Område G3d: SO/9-16 knop, byar upp till 30 knop.
Område G2c: S/5-12 knop, byar upp till 24 knop.
Område G1b: SO/3-14 knop, byar upp till 30 knop.
Område G1c: SO/6-14 knop, byar upp till 29 knop.
Område G3a: SO-S/4-15 knop, byar upp till 29 knop.
Område G2a: SO-S/4-13 knop, byar upp till 23 knop.
Område G1a: SO-S/2-11 knop, byar upp till 20 knop.
Område G3b: SO-S/6-16 knop, byar upp till 30 knop.
Område G2b: S/5-14 knop, byar upp till 24 knop.
Område G3c: SO-S/8-15 knop, byar upp till 30 knop.

14-16UTC: Område G2c: S/5-11 knop, byar upp till 21 knop.
Område G3a: SO-S/4-15 knop, byar upp till 27 knop.
Område G3d: SO/9-15 knop, byar upp till 29 knop.
Område G1b: SO/3-14 knop, byar upp till 28 knop.
Område G1c: SO/6-12 knop, byar upp till 28 knop.
Område G2b: SO-S/5-15 knop, byar upp till 24 knop.
Område G2a: SO/5-14 knop, byar upp till 23 knop.
Område G3b: SO/6-16 knop, byar upp till 29 knop.
Område G1a: SO-S/2-14 knop, byar upp till 17 knop.
Område G3c: SO/8-16 knop, byar upp till 29 knop.


Genomsnittlig vind och temperatur för området
2000ft:
08-10UTC: 180/18kt +9.
10-12UTC: 170/19kt +10.
12-14UTC: 160/19kt +10.
14-16UTC: 160/20kt +10.

FL50:
08-12UTC: 170/21kt +1.
12-14UTC: 160/20kt +2.
14-16UTC: 160/21kt +2.

FL100:
08-10UTC: 160/16kt -3.
10-12UTC: 160/17kt -3.
12-14UTC: 160/19kt -3.
14-16UTC: 150/20kt -4.

Lägsta QNH
1021 hPa.

OBS! endast utbredd måttlig eller svår isbildning och turbulens prognostiseras i LLF.
Avsaknad av isbildning och turbulens i prognosen utesluter inte förekomst av lätt isbildning och turbulens.
För indikation på lätt isbildning, var vänlig kontrollera om prognosen för molntopp ligger högre än nollgradersisotermen.
Förekomst av TCU eller CB medför alltid en risk för måttlig eller svår isbildning och turbulens även om det inte framgår explicit av prognosen.





Spotting

Hur fungerar spotthjälpen och Vindkartan?

Markvind är ca 0-4 m/s med byar på 7 m/s.
Vind på 600 m ca 9 m/s.
Vind på 1500 m ca 11 m/s.
Vind på 3000 m ca 8 m/s.
Zäta Yngve flyger ca 33 m/s över marken på finalen.
Du driver ca 370 m bakåt i frifall. (494 m)
Lämplig spot är 3 sekunder eller 99 m efter gropen.
(6 s eller 198 m)
För små grupper eller ensamhoppare bör man vänta 5-7 sekunder mellan grupperna.
För större grupper bör man vänta 9-11 sekunder mellan grupperna.


Vindkartan

Senast uppdaterad 10:13




All data kommer från LFV.se